createdAt,value
2018-02-27T00:00:00.576Z,1.60
2018-02-27T00:05:02.836Z,1.80
2018-02-27T00:10:04.346Z,1.33
2018-02-27T00:15:05.939Z,1.80
2018-02-27T00:20:07.311Z,1.20
2018-02-27T00:25:08.792Z,1.57
2018-02-27T00:30:10.199Z,1.83
2018-02-27T00:35:11.680Z,1.90
2018-02-27T00:40:13.200Z,1.50
2018-02-27T00:45:14.547Z,1.50
2018-02-27T00:50:16.086Z,1.60
2018-02-27T00:55:17.556Z,1.67
2018-02-27T01:00:19.003Z,1.60
2018-02-27T01:05:21.173Z,1.30
2018-02-27T01:10:22.700Z,2.03
2018-02-27T01:15:24.902Z,2.07
2018-02-27T01:20:26.380Z,2.07
2018-02-27T01:25:27.912Z,1.83
2018-02-27T01:30:30.174Z,2.30
2018-02-27T01:35:31.478Z,2.40
2018-02-27T01:40:33.019Z,1.80
2018-02-27T01:45:34.546Z,1.93
2018-02-27T01:50:36.083Z,2.03
2018-02-27T01:55:38.411Z,1.93
2018-02-27T02:00:39.889Z,1.83
2018-02-27T02:05:42.172Z,1.57
2018-02-27T02:10:43.702Z,2.50
2018-02-27T02:15:45.970Z,1.80
2018-02-27T02:20:47.433Z,1.87
2018-02-27T02:25:48.936Z,1.80
2018-02-27T02:30:50.460Z,2.20
2018-02-27T02:35:52.001Z,1.87
2018-02-27T02:40:53.499Z,2.50
2018-02-27T02:45:54.999Z,2.30
2018-02-27T02:50:56.454Z,2.03
2018-02-27T02:55:58.726Z,2.23
2018-02-27T03:01:00.184Z,2.10
2018-02-27T03:06:01.736Z,2.17
2018-02-27T03:11:03.047Z,2.70
2018-02-27T03:16:05.345Z,2.40
2018-02-27T03:21:06.927Z,2.77
2018-02-27T03:26:08.461Z,2.37
2018-02-27T03:31:09.997Z,2.20
2018-02-27T03:36:11.493Z,2.13
2018-02-27T03:41:13.069Z,2.50
2018-02-27T03:46:14.565Z,2.07
2018-02-27T03:51:16.060Z,2.13
2018-02-27T03:56:17.450Z,1.87
2018-02-27T04:01:18.975Z,3.57
2018-02-27T04:06:20.538Z,3.13
2018-02-27T04:11:21.909Z,2.87
2018-02-27T04:16:23.454Z,3.07
2018-02-27T04:21:31.819Z,3.63
2018-02-27T04:26:33.403Z,3.10
2018-02-27T04:31:34.954Z,2.60
2018-02-27T04:36:36.492Z,3.50
2018-02-27T04:41:38.263Z,2.70
2018-02-27T04:46:40.368Z,2.70
2018-02-27T04:51:41.943Z,3.37
2018-02-27T04:56:43.507Z,2.53
2018-02-27T05:01:45.683Z,2.90
2018-02-27T05:06:47.187Z,2.47
2018-02-27T05:11:48.679Z,2.87
2018-02-27T05:16:50.176Z,2.70
2018-02-27T05:21:51.690Z,3.20
2018-02-27T05:26:53.425Z,3.63
2018-02-27T05:31:54.804Z,3.60
2018-02-27T05:36:56.313Z,3.33
2018-02-27T05:42:04.873Z,3.17
2018-02-27T05:47:06.454Z,3.67
2018-02-27T05:52:07.791Z,3.27
2018-02-27T05:57:09.394Z,2.97
2018-02-27T06:02:10.746Z,3.30
2018-02-27T06:07:12.285Z,3.30
2018-02-27T06:12:13.826Z,3.03
2018-02-27T06:17:15.346Z,3.50
2018-02-27T06:22:16.876Z,2.90
2018-02-27T06:27:18.404Z,3.50
2018-02-27T06:32:19.921Z,4.80
2018-02-27T06:37:21.506Z,3.50
2018-02-27T06:42:22.958Z,3.70
2018-02-27T06:47:25.262Z,3.60
2018-02-27T06:52:27.575Z,4.00
2018-02-27T06:57:28.941Z,3.13
2018-02-27T07:02:30.511Z,3.17
2018-02-27T07:07:32.074Z,3.63
2018-02-27T07:12:34.353Z,3.37
2018-02-27T07:17:35.866Z,3.03
2018-02-27T07:22:38.172Z,2.93
2018-02-27T07:27:39.725Z,3.40
2018-02-27T07:32:41.332Z,3.17
2018-02-27T07:37:42.860Z,3.67
2018-02-27T07:42:44.411Z,3.70
2018-02-27T07:47:45.971Z,4.40
2018-02-27T07:52:47.548Z,3.70
2018-02-27T07:57:49.861Z,3.40
2018-02-27T08:02:52.201Z,3.60
2018-02-27T08:07:53.726Z,3.43
2018-02-27T08:12:55.276Z,3.60
2018-02-27T08:17:56.816Z,3.90
2018-02-27T08:22:58.380Z,3.83
2018-02-27T08:27:59.893Z,3.60
2018-02-27T08:33:01.425Z,3.20
2018-02-27T08:38:02.980Z,3.70
2018-02-27T08:43:04.479Z,3.13
2018-02-27T08:48:06.040Z,3.93
2018-02-27T08:53:07.653Z,2.80
2018-02-27T08:58:09.315Z,3.60
2018-02-27T09:03:10.867Z,3.10
2018-02-27T09:08:12.418Z,3.50
2018-02-27T09:13:13.954Z,3.60
2018-02-27T09:18:15.497Z,6.43
2018-02-27T09:23:17.755Z,3.60
2018-02-27T09:28:19.273Z,3.80
2018-02-27T09:33:20.665Z,4.57
2018-02-27T09:38:22.173Z,4.47
2018-02-27T09:43:23.631Z,5.43
2018-02-27T09:48:25.166Z,4.50
2018-02-27T09:53:27.444Z,4.37
2018-02-27T09:58:28.939Z,5.43
2018-02-27T10:03:30.487Z,5.30
2018-02-27T10:08:32.116Z,5.00
2018-02-27T10:13:33.636Z,5.37
2018-02-27T10:18:35.198Z,6.07
2018-02-27T10:23:36.753Z,6.30
2018-02-27T10:28:39.053Z,8.40
2018-02-27T10:33:41.367Z,7.87
2018-02-27T10:38:43.663Z,8.67
2018-02-27T10:43:45.214Z,8.00
2018-02-27T10:48:46.752Z,8.23
2018-02-27T10:53:48.101Z,7.60
2018-02-27T10:58:49.672Z,6.73
2018-02-27T11:03:51.199Z,7.03
2018-02-27T11:08:52.731Z,7.57
2018-02-27T11:13:54.282Z,6.60
2018-02-27T11:18:55.885Z,6.77
2018-02-27T11:23:57.444Z,6.50
2018-02-27T11:28:58.971Z,6.50
2018-02-27T11:34:00.524Z,7.60
2018-02-27T11:39:02.072Z,6.77
2018-02-27T11:44:03.579Z,7.60
2018-02-27T11:49:05.661Z,6.47
2018-02-27T11:54:07.310Z,5.47
2018-02-27T11:59:09.638Z,4.43
2018-02-27T12:04:11.139Z,5.80
2018-02-27T12:09:12.744Z,5.60
2018-02-27T12:14:14.336Z,5.10
2018-02-27T12:19:15.845Z,4.50
2018-02-27T12:24:17.179Z,6.20
2018-02-27T12:29:18.638Z,5.80
2018-02-27T12:34:20.072Z,5.57
2018-02-27T12:39:21.582Z,6.40
2018-02-27T12:44:23.101Z,5.80
2018-02-27T12:49:24.450Z,7.37
2018-02-27T12:54:26.747Z,5.60
2018-02-27T12:59:28.290Z,5.87
2018-02-27T13:04:29.648Z,5.37
2018-02-27T13:09:31.979Z,9.63
2018-02-27T13:14:33.543Z,7.10
2018-02-27T13:19:35.100Z,9.90
2018-02-27T13:24:36.672Z,5.60
2018-02-27T13:29:38.277Z,6.30
2018-02-27T13:34:39.833Z,6.53
2018-02-27T13:39:41.928Z,5.97
2018-02-27T13:44:44.121Z,6.00
2018-02-27T13:49:45.655Z,5.03
2018-02-27T13:54:47.945Z,6.50
2018-02-27T13:59:49.539Z,6.23
2018-02-27T14:04:51.809Z,3.40
2018-02-27T14:09:53.378Z,4.00
2018-02-27T14:14:54.907Z,4.70
2018-02-27T14:19:56.454Z,4.70
2018-02-27T14:24:58.767Z,4.17
2018-02-27T14:30:00.332Z,3.20
2018-02-27T14:35:01.847Z,3.03
2018-02-27T14:40:03.424Z,3.23
2018-02-27T14:45:04.968Z,3.37
2018-02-27T14:50:06.313Z,2.57
2018-02-27T14:55:08.634Z,3.80
2018-02-27T15:00:10.975Z,4.40
2018-02-27T15:05:12.565Z,4.33
2018-02-27T15:10:14.112Z,4.70
2018-02-27T15:15:15.667Z,4.47
2018-02-27T15:20:17.220Z,4.30
2018-02-27T15:25:18.965Z,2.90
2018-02-27T15:30:20.495Z,2.40
2018-02-27T15:35:22.020Z,2.60
2018-02-27T15:40:24.366Z,1.83
2018-02-27T15:45:26.937Z,1.90
2018-02-27T15:50:29.249Z,1.70
2018-02-27T15:55:30.836Z,2.23
2018-02-27T16:00:32.358Z,2.27
2018-02-27T16:05:33.910Z,1.93
2018-02-27T16:10:35.438Z,1.90
2018-02-27T16:15:37.520Z,2.73
2018-02-27T16:20:39.087Z,1.10
2018-02-27T16:25:40.738Z,1.70
2018-02-27T16:30:43.088Z,1.80
2018-02-27T16:35:44.710Z,1.80
2018-02-27T16:40:46.104Z,2.17
2018-02-27T16:45:47.756Z,1.80
2018-02-27T16:50:49.293Z,1.90
2018-02-27T16:55:50.903Z,1.97
2018-02-27T17:00:52.441Z,2.20
2018-02-27T17:05:53.913Z,1.63
2018-02-27T17:10:55.481Z,2.77
2018-02-27T17:15:56.837Z,2.63
2018-02-27T17:20:58.356Z,3.10
2018-02-27T17:25:59.946Z,2.43
2018-02-27T17:31:01.479Z,2.10
2018-02-27T17:36:03.701Z,2.20
2018-02-27T17:41:05.300Z,2.67
2018-02-27T17:46:06.865Z,3.23
2018-02-27T17:51:08.443Z,3.70
2018-02-27T17:56:10.031Z,3.07
2018-02-27T18:01:11.932Z,3.73
2018-02-27T18:06:13.392Z,3.53
2018-02-27T18:11:15.077Z,3.07
2018-02-27T18:16:16.588Z,2.40
2018-02-27T18:21:18.523Z,6.17
2018-02-27T18:26:20.131Z,2.73
2018-02-27T18:31:21.734Z,1.90
2018-02-27T18:36:23.219Z,2.30
2018-02-27T18:41:24.676Z,12.83
2018-02-27T18:46:26.693Z,5.50
2018-02-27T18:51:28.240Z,12.60
2018-02-27T18:56:30.497Z,18.57
2018-02-27T19:01:32.041Z,8.40
2018-02-27T19:06:34.503Z,3.90
2018-02-27T19:11:36.184Z,4.10
2018-02-27T19:16:37.755Z,3.40
2018-02-27T19:21:40.080Z,3.50
2018-02-27T19:26:41.726Z,4.63
2018-02-27T19:31:43.304Z,2.90
2018-02-27T19:36:44.941Z,2.30
2018-02-27T19:41:47.282Z,2.00
2018-02-27T19:46:48.925Z,2.50
2018-02-27T19:51:50.571Z,2.67
2018-02-27T19:56:52.124Z,5.93
2018-02-27T20:01:53.640Z,3.97
2018-02-27T20:06:55.992Z,4.40
2018-02-27T20:11:57.385Z,3.73
2018-02-27T20:16:58.917Z,2.80
2018-02-27T20:22:00.407Z,2.93
2018-02-27T20:27:02.045Z,3.00
2018-02-27T20:32:03.674Z,3.40
2018-02-27T20:37:05.243Z,2.77
2018-02-27T20:42:06.828Z,5.03
2018-02-27T20:47:08.396Z,4.37
2018-02-27T20:52:09.744Z,3.00
2018-02-27T20:57:11.263Z,3.37
2018-02-27T21:02:12.812Z,3.00
2018-02-27T21:07:14.400Z,2.30
2018-02-27T21:12:15.994Z,3.23
2018-02-27T21:17:18.334Z,3.70
2018-02-27T21:22:19.931Z,3.57
2018-02-27T21:27:21.509Z,2.97
2018-02-27T21:32:23.030Z,3.90
2018-02-27T21:37:24.583Z,3.47
2018-02-27T21:42:26.155Z,4.80
2018-02-27T21:47:27.723Z,4.23
2018-02-27T21:52:29.348Z,4.10
2018-02-27T21:57:30.916Z,4.23
2018-02-27T22:02:32.444Z,3.43
2018-02-27T22:07:34.014Z,3.67
2018-02-27T22:12:35.506Z,4.70
2018-02-27T22:17:37.074Z,4.07
2018-02-27T22:22:38.688Z,5.53
2018-02-27T22:27:40.217Z,5.10
2018-02-27T22:32:42.631Z,4.50
2018-02-27T22:37:44.238Z,5.80
2018-02-27T22:42:45.885Z,5.90
2018-02-27T22:47:47.477Z,6.30
2018-02-27T22:52:49.059Z,7.30
2018-02-27T22:57:50.640Z,6.70
2018-02-27T23:02:52.355Z,6.60
2018-02-27T23:07:53.977Z,6.97
2018-02-27T23:12:55.526Z,7.30
2018-02-27T23:17:57.085Z,6.20
2018-02-27T23:22:58.615Z,7.30
2018-02-27T23:28:01.135Z,6.77
2018-02-27T23:33:09.747Z,6.10
2018-02-27T23:38:11.136Z,6.20
2018-02-27T23:43:12.531Z,6.27
2018-02-27T23:48:14.083Z,7.67
2018-02-27T23:53:15.557Z,7.80
2018-02-27T23:58:17.002Z,6.67
